sensor_id;sensor_type;location;lat;lon;timestamp;P1;durP1;ratioP1;P2;durP2;ratioP2
27424;SDS011;15244;49.088;11.886;2024-02-28T00:04:06;22.20;;;16.48;;
27424;SDS011;15244;49.088;11.886;2024-02-28T00:09:07;24.27;;;16.63;;
27424;SDS011;15244;49.088;11.886;2024-02-28T00:14:10;23.77;;;16.63;;
27424;SDS011;15244;49.088;11.886;2024-02-28T00:19:12;22.80;;;16.02;;
27424;SDS011;15244;49.088;11.886;2024-02-28T00:24:14;23.05;;;15.77;;
27424;SDS011;15244;49.088;11.886;2024-02-28T00:29:15;23.60;;;15.93;;
27424;SDS011;15244;49.088;11.886;2024-02-28T00:34:17;20.63;;;15.50;;
27424;SDS011;15244;49.088;11.886;2024-02-28T00:39:19;25.42;;;16.40;;
27424;SDS011;15244;49.088;11.886;2024-02-28T00:44:20;25.70;;;16.33;;
27424;SDS011;15244;49.088;11.886;2024-02-28T00:49:22;21.73;;;15.75;;
27424;SDS011;15244;49.088;11.886;2024-02-28T00:54:24;22.77;;;16.48;;
27424;SDS011;15244;49.088;11.886;2024-02-28T00:59:27;21.52;;;15.95;;
27424;SDS011;15244;49.088;11.886;2024-02-28T01:04:29;25.20;;;16.85;;
27424;SDS011;15244;49.088;11.886;2024-02-28T01:09:30;21.67;;;15.90;;
27424;SDS011;15244;49.088;11.886;2024-02-28T01:14:32;24.08;;;16.35;;
27424;SDS011;15244;49.088;11.886;2024-02-28T01:19:34;24.20;;;16.83;;
27424;SDS011;15244;49.088;11.886;2024-02-28T01:24:36;25.35;;;17.33;;
27424;SDS011;15244;49.088;11.886;2024-02-28T01:29:38;25.08;;;17.17;;
27424;SDS011;15244;49.088;11.886;2024-02-28T01:34:40;23.95;;;17.25;;
27424;SDS011;15244;49.088;11.886;2024-02-28T01:39:41;25.10;;;17.23;;
27424;SDS011;15244;49.088;11.886;2024-02-28T01:44:44;26.42;;;17.35;;
27424;SDS011;15244;49.088;11.886;2024-02-28T01:49:47;28.15;;;17.33;;
27424;SDS011;15244;49.088;11.886;2024-02-28T01:54:52;23.77;;;17.08;;
27424;SDS011;15244;49.088;11.886;2024-02-28T01:59:54;27.08;;;17.05;;
27424;SDS011;15244;49.088;11.886;2024-02-28T02:04:57;23.55;;;16.45;;
27424;SDS011;15244;49.088;11.886;2024-02-28T02:10:00;25.05;;;17.10;;
27424;SDS011;15244;49.088;11.886;2024-02-28T02:15:02;24.63;;;17.70;;
27424;SDS011;15244;49.088;11.886;2024-02-28T02:20:04;24.75;;;17.17;;
27424;SDS011;15244;49.088;11.886;2024-02-28T02:25:07;22.90;;;15.65;;
27424;SDS011;15244;49.088;11.886;2024-02-28T02:30:09;23.23;;;16.42;;
27424;SDS011;15244;49.088;11.886;2024-02-28T02:35:11;23.70;;;16.50;;
27424;SDS011;15244;49.088;11.886;2024-02-28T02:40:13;22.55;;;15.82;;
27424;SDS011;15244;49.088;11.886;2024-02-28T02:45:16;24.27;;;16.10;;
27424;SDS011;15244;49.088;11.886;2024-02-28T02:50:18;18.80;;;15.05;;
27424;SDS011;15244;49.088;11.886;2024-02-28T02:55:20;21.83;;;15.43;;
27424;SDS011;15244;49.088;11.886;2024-02-28T03:00:22;21.83;;;16.20;;
27424;SDS011;15244;49.088;11.886;2024-02-28T03:05:24;23.52;;;16.58;;
27424;SDS011;15244;49.088;11.886;2024-02-28T03:10:25;21.73;;;15.75;;
27424;SDS011;15244;49.088;11.886;2024-02-28T03:15:27;23.42;;;16.40;;
27424;SDS011;15244;49.088;11.886;2024-02-28T03:20:29;21.50;;;15.52;;
27424;SDS011;15244;49.088;11.886;2024-02-28T03:25:30;21.65;;;16.42;;
27424;SDS011;15244;49.088;11.886;2024-02-28T03:30:32;21.90;;;16.13;;
27424;SDS011;15244;49.088;11.886;2024-02-28T03:35:34;25.25;;;18.23;;
27424;SDS011;15244;49.088;11.886;2024-02-28T03:40:36;24.33;;;16.80;;
27424;SDS011;15244;49.088;11.886;2024-02-28T03:45:38;23.23;;;16.25;;
27424;SDS011;15244;49.088;11.886;2024-02-28T03:50:40;28.23;;;18.35;;
27424;SDS011;15244;49.088;11.886;2024-02-28T03:55:42;29.17;;;18.52;;
27424;SDS011;15244;49.088;11.886;2024-02-28T04:00:47;25.67;;;17.25;;
27424;SDS011;15244;49.088;11.886;2024-02-28T04:05:49;23.52;;;17.02;;
27424;SDS011;15244;49.088;11.886;2024-02-28T04:10:51;25.30;;;17.20;;
27424;SDS011;15244;49.088;11.886;2024-02-28T04:15:52;25.52;;;18.00;;
27424;SDS011;15244;49.088;11.886;2024-02-28T04:20:54;24.30;;;16.58;;
27424;SDS011;15244;49.088;11.886;2024-02-28T04:25:56;25.05;;;17.83;;
27424;SDS011;15244;49.088;11.886;2024-02-28T04:30:58;23.80;;;16.15;;
27424;SDS011;15244;49.088;11.886;2024-02-28T04:35:59;26.27;;;18.10;;
27424;SDS011;15244;49.088;11.886;2024-02-28T04:41:01;24.00;;;16.83;;
27424;SDS011;15244;49.088;11.886;2024-02-28T04:46:03;22.10;;;15.65;;
27424;SDS011;15244;49.088;11.886;2024-02-28T04:51:05;24.05;;;16.63;;
27424;SDS011;15244;49.088;11.886;2024-02-28T04:56:06;25.05;;;17.55;;
27424;SDS011;15244;49.088;11.886;2024-02-28T05:01:08;19.52;;;14.75;;
27424;SDS011;15244;49.088;11.886;2024-02-28T05:06:10;21.05;;;15.45;;
27424;SDS011;15244;49.088;11.886;2024-02-28T05:11:11;22.65;;;15.82;;
27424;SDS011;15244;49.088;11.886;2024-02-28T05:16:13;21.50;;;15.45;;
27424;SDS011;15244;49.088;11.886;2024-02-28T05:21:16;23.20;;;15.68;;
27424;SDS011;15244;49.088;11.886;2024-02-28T05:26:18;21.15;;;14.82;;
27424;SDS011;15244;49.088;11.886;2024-02-28T05:31:23;22.52;;;16.02;;
27424;SDS011;15244;49.088;11.886;2024-02-28T05:36:26;22.67;;;15.45;;
27424;SDS011;15244;49.088;11.886;2024-02-28T05:41:29;20.65;;;15.77;;
27424;SDS011;15244;49.088;11.886;2024-02-28T05:46:30;21.55;;;14.13;;
27424;SDS011;15244;49.088;11.886;2024-02-28T05:51:33;19.85;;;15.63;;
27424;SDS011;15244;49.088;11.886;2024-02-28T05:56:35;20.77;;;14.63;;
27424;SDS011;15244;49.088;11.886;2024-02-28T06:01:36;19.90;;;15.02;;
27424;SDS011;15244;49.088;11.886;2024-02-28T06:06:39;20.52;;;14.85;;
27424;SDS011;15244;49.088;11.886;2024-02-28T06:11:41;19.17;;;14.40;;
27424;SDS011;15244;49.088;11.886;2024-02-28T06:16:43;19.55;;;14.23;;
27424;SDS011;15244;49.088;11.886;2024-02-28T06:21:47;20.42;;;13.80;;
27424;SDS011;15244;49.088;11.886;2024-02-28T06:26:49;20.00;;;14.82;;
27424;SDS011;15244;49.088;11.886;2024-02-28T06:31:51;23.13;;;13.95;;
27424;SDS011;15244;49.088;11.886;2024-02-28T06:36:53;18.98;;;14.63;;
27424;SDS011;15244;49.088;11.886;2024-02-28T06:41:55;21.30;;;13.70;;
27424;SDS011;15244;49.088;11.886;2024-02-28T06:46:56;16.38;;;12.70;;
27424;SDS011;15244;49.088;11.886;2024-02-28T06:51:58;16.65;;;12.30;;
27424;SDS011;15244;49.088;11.886;2024-02-28T06:57:02;17.13;;;12.52;;
27424;SDS011;15244;49.088;11.886;2024-02-28T07:02:04;17.20;;;12.65;;
27424;SDS011;15244;49.088;11.886;2024-02-28T07:07:06;16.98;;;12.73;;
27424;SDS011;15244;49.088;11.886;2024-02-28T07:12:08;15.75;;;11.68;;
27424;SDS011;15244;49.088;11.886;2024-02-28T07:17:09;17.42;;;12.70;;
27424;SDS011;15244;49.088;11.886;2024-02-28T07:22:12;17.63;;;13.85;;
27424;SDS011;15244;49.088;11.886;2024-02-28T07:27:13;17.35;;;13.00;;
27424;SDS011;15244;49.088;11.886;2024-02-28T07:32:15;22.77;;;13.80;;
27424;SDS011;15244;49.088;11.886;2024-02-28T07:37:16;18.58;;;12.73;;
27424;SDS011;15244;49.088;11.886;2024-02-28T07:42:18;19.05;;;14.20;;
27424;SDS011;15244;49.088;11.886;2024-02-28T07:47:20;18.88;;;13.55;;
27424;SDS011;15244;49.088;11.886;2024-02-28T07:52:21;18.85;;;13.30;;
27424;SDS011;15244;49.088;11.886;2024-02-28T07:57:24;17.60;;;13.23;;
27424;SDS011;15244;49.088;11.886;2024-02-28T08:02:28;19.00;;;13.55;;
27424;SDS011;15244;49.088;11.886;2024-02-28T08:07:44;20.52;;;13.48;;
27424;SDS011;15244;49.088;11.886;2024-02-28T08:12:46;19.55;;;12.85;;
27424;SDS011;15244;49.088;11.886;2024-02-28T08:17:48;19.40;;;14.48;;
27424;SDS011;15244;49.088;11.886;2024-02-28T08:22:49;20.17;;;13.32;;
27424;SDS011;15244;49.088;11.886;2024-02-28T08:27:54;22.88;;;14.38;;
27424;SDS011;15244;49.088;11.886;2024-02-28T08:32:55;20.40;;;14.82;;
27424;SDS011;15244;49.088;11.886;2024-02-28T08:37:57;23.17;;;14.73;;
27424;SDS011;15244;49.088;11.886;2024-02-28T08:42:58;21.08;;;14.40;;
27424;SDS011;15244;49.088;11.886;2024-02-28T08:48:00;18.73;;;14.48;;
27424;SDS011;15244;49.088;11.886;2024-02-28T08:53:05;21.88;;;14.52;;
27424;SDS011;15244;49.088;11.886;2024-02-28T08:58:06;19.90;;;14.60;;
27424;SDS011;15244;49.088;11.886;2024-02-28T09:03:08;22.90;;;15.27;;
27424;SDS011;15244;49.088;11.886;2024-02-28T09:08:09;22.02;;;15.73;;
27424;SDS011;15244;49.088;11.886;2024-02-28T09:13:15;24.38;;;16.30;;
27424;SDS011;15244;49.088;11.886;2024-02-28T09:18:17;21.42;;;14.90;;
27424;SDS011;15244;49.088;11.886;2024-02-28T09:23:18;22.40;;;15.05;;
27424;SDS011;15244;49.088;11.886;2024-02-28T09:28:20;22.73;;;16.42;;
27424;SDS011;15244;49.088;11.886;2024-02-28T09:33:21;28.02;;;18.27;;
27424;SDS011;15244;49.088;11.886;2024-02-28T09:38:23;25.77;;;17.35;;
27424;SDS011;15244;49.088;11.886;2024-02-28T09:43:28;27.67;;;18.42;;
27424;SDS011;15244;49.088;11.886;2024-02-28T09:48:31;27.38;;;19.08;;
27424;SDS011;15244;49.088;11.886;2024-02-28T09:53:33;29.73;;;18.75;;
27424;SDS011;15244;49.088;11.886;2024-02-28T09:58:35;31.85;;;19.20;;
27424;SDS011;15244;49.088;11.886;2024-02-28T10:03:40;22.50;;;15.50;;
27424;SDS011;15244;49.088;11.886;2024-02-28T10:08:44;23.55;;;16.00;;
27424;SDS011;15244;49.088;11.886;2024-02-28T10:13:49;18.58;;;13.20;;
27424;SDS011;15244;49.088;11.886;2024-02-28T10:18:51;18.45;;;13.23;;
27424;SDS011;15244;49.088;11.886;2024-02-28T10:23:53;22.52;;;14.20;;
27424;SDS011;15244;49.088;11.886;2024-02-28T10:28:56;24.85;;;17.13;;
27424;SDS011;15244;49.088;11.886;2024-02-28T10:33:57;30.77;;;18.77;;
27424;SDS011;15244;49.088;11.886;2024-02-28T10:39:02;26.95;;;18.13;;
27424;SDS011;15244;49.088;11.886;2024-02-28T10:44:04;25.30;;;15.80;;
27424;SDS011;15244;49.088;11.886;2024-02-28T10:49:06;27.00;;;16.88;;
27424;SDS011;15244;49.088;11.886;2024-02-28T10:54:09;24.13;;;16.30;;
27424;SDS011;15244;49.088;11.886;2024-02-28T10:59:16;23.15;;;15.32;;
27424;SDS011;15244;49.088;11.886;2024-02-28T11:04:17;19.67;;;13.88;;
27424;SDS011;15244;49.088;11.886;2024-02-28T11:09:23;21.33;;;14.30;;
27424;SDS011;15244;49.088;11.886;2024-02-28T11:14:29;23.08;;;15.20;;
27424;SDS011;15244;49.088;11.886;2024-02-28T11:19:33;20.35;;;13.65;;
27424;SDS011;15244;49.088;11.886;2024-02-28T11:24:36;20.63;;;14.23;;
27424;SDS011;15244;49.088;11.886;2024-02-28T11:29:39;19.67;;;13.35;;
27424;SDS011;15244;49.088;11.886;2024-02-28T11:34:41;20.25;;;14.10;;
27424;SDS011;15244;49.088;11.886;2024-02-28T11:39:46;18.83;;;13.27;;
27424;SDS011;15244;49.088;11.886;2024-02-28T11:44:55;20.77;;;13.77;;
27424;SDS011;15244;49.088;11.886;2024-02-28T11:50:02;20.00;;;12.23;;
27424;SDS011;15244;49.088;11.886;2024-02-28T11:55:08;19.33;;;13.40;;
27424;SDS011;15244;49.088;11.886;2024-02-28T12:00:10;19.63;;;12.65;;
27424;SDS011;15244;49.088;11.886;2024-02-28T12:05:15;18.23;;;11.98;;
27424;SDS011;15244;49.088;11.886;2024-02-28T12:10:18;22.98;;;14.13;;
27424;SDS011;15244;49.088;11.886;2024-02-28T12:15:20;19.58;;;13.88;;
27424;SDS011;15244;49.088;11.886;2024-02-28T12:20:22;20.02;;;14.23;;
27424;SDS011;15244;49.088;11.886;2024-02-28T12:25:23;19.13;;;12.80;;
27424;SDS011;15244;49.088;11.886;2024-02-28T12:30:25;20.48;;;14.10;;
27424;SDS011;15244;49.088;11.886;2024-02-28T12:35:27;20.52;;;13.65;;
27424;SDS011;15244;49.088;11.886;2024-02-28T12:40:29;17.92;;;13.07;;
27424;SDS011;15244;49.088;11.886;2024-02-28T12:45:31;19.42;;;13.13;;
27424;SDS011;15244;49.088;11.886;2024-02-28T12:50:33;19.55;;;12.90;;
27424;SDS011;15244;49.088;11.886;2024-02-28T12:55:37;17.90;;;13.02;;
27424;SDS011;15244;49.088;11.886;2024-02-28T13:00:38;19.27;;;13.05;;
27424;SDS011;15244;49.088;11.886;2024-02-28T13:05:41;19.08;;;12.68;;
27424;SDS011;15244;49.088;11.886;2024-02-28T13:10:43;18.88;;;13.40;;
27424;SDS011;15244;49.088;11.886;2024-02-28T13:15:45;15.43;;;11.40;;
27424;SDS011;15244;49.088;11.886;2024-02-28T13:20:46;18.60;;;13.07;;
27424;SDS011;15244;49.088;11.886;2024-02-28T13:25:48;23.42;;;15.93;;
27424;SDS011;15244;49.088;11.886;2024-02-28T13:30:50;17.02;;;11.85;;
27424;SDS011;15244;49.088;11.886;2024-02-28T13:35:52;14.50;;;11.07;;
27424;SDS011;15244;49.088;11.886;2024-02-28T13:40:54;10.88;;;9.57;;
27424;SDS011;15244;49.088;11.886;2024-02-28T13:45:58;14.82;;;11.25;;
27424;SDS011;15244;49.088;11.886;2024-02-28T13:51:02;13.20;;;10.27;;
27424;SDS011;15244;49.088;11.886;2024-02-28T13:56:04;12.90;;;9.85;;
27424;SDS011;15244;49.088;11.886;2024-02-28T14:01:08;10.82;;;9.32;;
27424;SDS011;15244;49.088;11.886;2024-02-28T14:06:11;12.50;;;10.05;;
27424;SDS011;15244;49.088;11.886;2024-02-28T14:11:13;11.60;;;9.48;;
27424;SDS011;15244;49.088;11.886;2024-02-28T14:16:18;13.23;;;10.35;;
27424;SDS011;15244;49.088;11.886;2024-02-28T14:21:21;15.35;;;10.50;;
27424;SDS011;15244;49.088;11.886;2024-02-28T14:26:26;10.00;;;8.98;;
27424;SDS011;15244;49.088;11.886;2024-02-28T14:31:29;12.75;;;10.50;;
27424;SDS011;15244;49.088;11.886;2024-02-28T14:36:32;12.27;;;10.45;;
27424;SDS011;15244;49.088;11.886;2024-02-28T14:41:34;13.77;;;10.40;;
27424;SDS011;15244;49.088;11.886;2024-02-28T14:46:36;10.25;;;9.13;;
27424;SDS011;15244;49.088;11.886;2024-02-28T14:51:38;11.07;;;9.60;;
27424;SDS011;15244;49.088;11.886;2024-02-28T14:56:41;11.45;;;9.45;;
27424;SDS011;15244;49.088;11.886;2024-02-28T15:01:43;11.05;;;9.30;;
27424;SDS011;15244;49.088;11.886;2024-02-28T15:06:45;11.65;;;10.02;;
27424;SDS011;15244;49.088;11.886;2024-02-28T15:11:47;10.75;;;9.10;;
27424;SDS011;15244;49.088;11.886;2024-02-28T15:16:49;12.23;;;9.77;;
27424;SDS011;15244;49.088;11.886;2024-02-28T15:21:52;11.35;;;10.18;;
27424;SDS011;15244;49.088;11.886;2024-02-28T15:26:54;13.93;;;10.52;;
27424;SDS011;15244;49.088;11.886;2024-02-28T15:31:57;11.57;;;10.38;;
27424;SDS011;15244;49.088;11.886;2024-02-28T15:36:59;10.85;;;9.65;;
27424;SDS011;15244;49.088;11.886;2024-02-28T15:42:01;11.88;;;9.95;;
27424;SDS011;15244;49.088;11.886;2024-02-28T15:47:03;15.55;;;10.02;;
27424;SDS011;15244;49.088;11.886;2024-02-28T15:52:04;10.48;;;9.32;;
27424;SDS011;15244;49.088;11.886;2024-02-28T15:57:06;10.98;;;9.88;;
27424;SDS011;15244;49.088;11.886;2024-02-28T16:02:09;11.32;;;9.88;;
27424;SDS011;15244;49.088;11.886;2024-02-28T16:07:11;11.98;;;9.48;;
27424;SDS011;15244;49.088;11.886;2024-02-28T16:12:13;11.43;;;9.35;;
27424;SDS011;15244;49.088;11.886;2024-02-28T16:17:15;9.57;;;8.57;;
27424;SDS011;15244;49.088;11.886;2024-02-28T16:22:18;10.73;;;9.05;;
27424;SDS011;15244;49.088;11.886;2024-02-28T16:27:22;9.38;;;8.45;;
27424;SDS011;15244;49.088;11.886;2024-02-28T16:32:23;12.20;;;10.90;;
27424;SDS011;15244;49.088;11.886;2024-02-28T16:37:25;13.10;;;11.70;;
27424;SDS011;15244;49.088;11.886;2024-02-28T16:42:27;13.55;;;11.30;;
27424;SDS011;15244;49.088;11.886;2024-02-28T16:47:30;12.10;;;10.63;;
27424;SDS011;15244;49.088;11.886;2024-02-28T16:52:32;10.88;;;9.75;;
27424;SDS011;15244;49.088;11.886;2024-02-28T16:57:34;14.77;;;11.52;;
27424;SDS011;15244;49.088;11.886;2024-02-28T17:02:37;14.85;;;11.80;;
27424;SDS011;15244;49.088;11.886;2024-02-28T17:07:40;22.90;;;15.88;;
27424;SDS011;15244;49.088;11.886;2024-02-28T17:12:41;15.90;;;13.10;;
27424;SDS011;15244;49.088;11.886;2024-02-28T17:17:43;18.17;;;14.55;;
27424;SDS011;15244;49.088;11.886;2024-02-28T17:22:45;13.48;;;11.05;;
27424;SDS011;15244;49.088;11.886;2024-02-28T17:27:47;12.07;;;10.63;;
27424;SDS011;15244;49.088;11.886;2024-02-28T17:32:49;16.73;;;12.57;;
27424;SDS011;15244;49.088;11.886;2024-02-28T17:37:52;13.80;;;11.57;;
27424;SDS011;15244;49.088;11.886;2024-02-28T17:42:55;13.50;;;11.57;;
27424;SDS011;15244;49.088;11.886;2024-02-28T17:47:57;13.52;;;10.00;;
27424;SDS011;15244;49.088;11.886;2024-02-28T17:52:59;14.50;;;11.52;;
27424;SDS011;15244;49.088;11.886;2024-02-28T17:58:01;11.95;;;10.65;;
27424;SDS011;15244;49.088;11.886;2024-02-28T18:03:02;14.65;;;11.57;;
27424;SDS011;15244;49.088;11.886;2024-02-28T18:08:08;13.48;;;11.93;;
27424;SDS011;15244;49.088;11.886;2024-02-28T18:13:11;16.05;;;12.57;;
27424;SDS011;15244;49.088;11.886;2024-02-28T18:18:13;12.98;;;10.95;;
27424;SDS011;15244;49.088;11.886;2024-02-28T18:23:14;15.80;;;12.65;;
27424;SDS011;15244;49.088;11.886;2024-02-28T18:28:30;14.38;;;11.73;;
27424;SDS011;15244;49.088;11.886;2024-02-28T18:33:38;18.02;;;12.55;;
27424;SDS011;15244;49.088;11.886;2024-02-28T18:38:40;18.70;;;14.10;;
27424;SDS011;15244;49.088;11.886;2024-02-28T18:43:42;16.83;;;13.00;;
27424;SDS011;15244;49.088;11.886;2024-02-28T18:48:46;14.75;;;11.55;;
27424;SDS011;15244;49.088;11.886;2024-02-28T18:53:47;12.10;;;10.90;;
27424;SDS011;15244;49.088;11.886;2024-02-28T18:58:49;15.68;;;13.18;;
27424;SDS011;15244;49.088;11.886;2024-02-28T19:03:51;15.63;;;13.20;;
27424;SDS011;15244;49.088;11.886;2024-02-28T19:08:54;15.25;;;13.10;;
27424;SDS011;15244;49.088;11.886;2024-02-28T19:13:57;14.57;;;12.25;;
27424;SDS011;15244;49.088;11.886;2024-02-28T19:19:02;15.73;;;13.07;;
27424;SDS011;15244;49.088;11.886;2024-02-28T19:24:04;16.30;;;13.57;;
27424;SDS011;15244;49.088;11.886;2024-02-28T19:29:06;17.80;;;13.70;;
27424;SDS011;15244;49.088;11.886;2024-02-28T19:34:08;16.48;;;13.25;;
27424;SDS011;15244;49.088;11.886;2024-02-28T19:39:11;14.88;;;12.25;;
27424;SDS011;15244;49.088;11.886;2024-02-28T19:44:15;14.05;;;11.75;;
27424;SDS011;15244;49.088;11.886;2024-02-28T19:49:16;16.48;;;14.18;;
27424;SDS011;15244;49.088;11.886;2024-02-28T19:54:19;16.70;;;13.25;;
27424;SDS011;15244;49.088;11.886;2024-02-28T19:59:21;16.40;;;13.90;;
27424;SDS011;15244;49.088;11.886;2024-02-28T20:04:22;14.60;;;12.25;;
27424;SDS011;15244;49.088;11.886;2024-02-28T20:09:24;14.65;;;12.60;;
27424;SDS011;15244;49.088;11.886;2024-02-28T20:14:26;18.17;;;12.75;;
27424;SDS011;15244;49.088;11.886;2024-02-28T20:19:31;15.30;;;12.35;;
27424;SDS011;15244;49.088;11.886;2024-02-28T20:24:32;15.20;;;12.60;;
27424;SDS011;15244;49.088;11.886;2024-02-28T20:29:38;13.70;;;12.25;;
27424;SDS011;15244;49.088;11.886;2024-02-28T20:34:41;17.92;;;13.52;;
27424;SDS011;15244;49.088;11.886;2024-02-28T20:39:42;17.73;;;13.00;;
27424;SDS011;15244;49.088;11.886;2024-02-28T20:44:44;16.15;;;13.52;;
27424;SDS011;15244;49.088;11.886;2024-02-28T20:49:47;16.98;;;13.32;;
27424;SDS011;15244;49.088;11.886;2024-02-28T20:54:49;18.63;;;13.20;;
27424;SDS011;15244;49.088;11.886;2024-02-28T20:59:52;16.00;;;12.43;;
27424;SDS011;15244;49.088;11.886;2024-02-28T21:04:55;16.35;;;12.88;;
27424;SDS011;15244;49.088;11.886;2024-02-28T21:09:59;15.45;;;13.32;;
27424;SDS011;15244;49.088;11.886;2024-02-28T21:15:08;15.13;;;12.95;;
27424;SDS011;15244;49.088;11.886;2024-02-28T21:20:11;14.30;;;12.18;;
27424;SDS011;15244;49.088;11.886;2024-02-28T21:25:14;16.83;;;13.32;;
27424;SDS011;15244;49.088;11.886;2024-02-28T21:30:15;15.25;;;13.07;;
27424;SDS011;15244;49.088;11.886;2024-02-28T21:35:17;15.27;;;12.02;;
27424;SDS011;15244;49.088;11.886;2024-02-28T21:40:20;15.38;;;11.77;;
27424;SDS011;15244;49.088;11.886;2024-02-28T21:45:25;15.55;;;11.60;;
27424;SDS011;15244;49.088;11.886;2024-02-28T21:50:27;16.60;;;11.57;;
27424;SDS011;15244;49.088;11.886;2024-02-28T21:55:30;15.60;;;11.75;;
27424;SDS011;15244;49.088;11.886;2024-02-28T22:00:31;19.55;;;14.63;;
27424;SDS011;15244;49.088;11.886;2024-02-28T22:05:34;34.22;;;21.05;;
27424;SDS011;15244;49.088;11.886;2024-02-28T22:10:36;21.70;;;15.20;;
27424;SDS011;15244;49.088;11.886;2024-02-28T22:15:41;17.10;;;13.40;;
27424;SDS011;15244;49.088;11.886;2024-02-28T22:20:44;18.13;;;13.05;;
27424;SDS011;15244;49.088;11.886;2024-02-28T22:25:46;17.67;;;13.18;;
27424;SDS011;15244;49.088;11.886;2024-02-28T22:30:48;26.77;;;16.60;;
27424;SDS011;15244;49.088;11.886;2024-02-28T22:35:49;20.38;;;15.27;;
27424;SDS011;15244;49.088;11.886;2024-02-28T22:40:51;20.00;;;14.15;;
27424;SDS011;15244;49.088;11.886;2024-02-28T22:45:57;19.40;;;14.68;;
27424;SDS011;15244;49.088;11.886;2024-02-28T22:50:59;17.05;;;12.85;;
27424;SDS011;15244;49.088;11.886;2024-02-28T22:56:00;18.05;;;13.20;;
27424;SDS011;15244;49.088;11.886;2024-02-28T23:01:02;19.00;;;13.77;;
27424;SDS011;15244;49.088;11.886;2024-02-28T23:06:04;19.95;;;14.05;;
27424;SDS011;15244;49.088;11.886;2024-02-28T23:11:06;19.98;;;13.75;;
27424;SDS011;15244;49.088;11.886;2024-02-28T23:16:08;18.50;;;13.63;;
27424;SDS011;15244;49.088;11.886;2024-02-28T23:21:10;16.75;;;11.98;;
27424;SDS011;15244;49.088;11.886;2024-02-28T23:26:12;18.27;;;13.57;;
27424;SDS011;15244;49.088;11.886;2024-02-28T23:31:14;20.65;;;13.98;;
27424;SDS011;15244;49.088;11.886;2024-02-28T23:36:15;22.80;;;15.10;;
27424;SDS011;15244;49.088;11.886;2024-02-28T23:41:17;18.38;;;14.30;;
27424;SDS011;15244;49.088;11.886;2024-02-28T23:46:19;19.77;;;15.00;;
27424;SDS011;15244;49.088;11.886;2024-02-28T23:51:21;19.98;;;14.75;;
27424;SDS011;15244;49.088;11.886;2024-02-28T23:56:23;19.95;;;14.65;;
